LYBE/BEG METAR and TAF weather

Enter ICAO airport designator
Station Type Date Time Source
LYBE METAR 2022/06/28 09:30 UTC NOAA

LYBE 280930Z 06006KT 020V100 CAVOK 32/14 Q1017 NOSIG


Station Type Date Time Source
LYBE Decoded METAR 2022/06/28 09:30 UTC NOAA

Beograd / Surcin, Serbia and Montenegro (LYBE) 44-49N 020-17E 99M
Jun 28, 2022 - 05:30 AM EDT / 2022.06.28 0930 UTC
Wind: from the ENE (060 degrees) at 7 MPH (6 KT) (direction variable):0
Visibility: greater than 7 mile(s):0
Temperature: 89 F (32 C)
Dew Point: 57 F (14 C)
Relative Humidity: 33%
Pressure (altimeter): 30.03 in. Hg (1017 hPa)
ob: LYBE 280930Z 06006KT 020V100 CAVOK 32/14 Q1017 NOSIG
cycle: 9

Station Type Date Time Source
LYBE TAF 2022/06/28 06:22 UTC NOAA

TAF LYBE 280500Z 2806/2906 04005KT CAVOK TX34/2813Z TN20/2903Z

Example: see airport list